createdAt,value
2019-04-14T00:00:09.838Z,6.40
2019-04-14T00:02:46.874Z,6.40
2019-04-14T00:05:16.996Z,6.40
2019-04-14T00:07:47.163Z,6.40
2019-04-14T00:10:18.396Z,6.40
2019-04-14T00:12:47.709Z,6.40
2019-04-14T00:15:25.938Z,6.50
2019-04-14T00:17:48.131Z,6.40
2019-04-14T00:20:18.581Z,6.50
2019-04-14T00:22:49.001Z,6.40
2019-04-14T00:25:19.462Z,6.40
2019-04-14T00:27:49.943Z,6.40
2019-04-14T00:30:21.477Z,6.40
2019-04-14T00:32:55.153Z,6.40
2019-04-14T00:35:34.197Z,6.40
2019-04-14T00:38:26.008Z,6.40
2019-04-14T00:41:18.008Z,6.40
2019-04-14T00:44:25.446Z,6.40
2019-04-14T00:47:00.632Z,6.40
2019-04-14T00:49:31.075Z,6.40
2019-04-14T00:52:01.430Z,6.40
2019-04-14T00:54:30.717Z,6.40
2019-04-14T00:57:00.894Z,6.40
2019-04-14T00:59:31.216Z,6.40
2019-04-14T01:02:01.315Z,6.40
2019-04-14T01:04:31.644Z,6.40
2019-04-14T01:07:01.982Z,6.40
2019-04-14T01:09:32.627Z,6.40
2019-04-14T01:12:02.416Z,6.40
2019-04-14T01:14:32.099Z,6.40
2019-04-14T01:17:02.632Z,6.30
2019-04-14T01:19:33.000Z,6.30
2019-04-14T01:22:03.193Z,6.40
2019-04-14T01:24:33.631Z,6.30
2019-04-14T01:27:03.939Z,6.30
2019-04-14T01:29:34.159Z,6.30
2019-04-14T01:32:04.548Z,6.30
2019-04-14T01:34:34.754Z,6.30
2019-04-14T01:37:05.154Z,6.30
2019-04-14T01:39:35.029Z,6.30
2019-04-14T01:42:04.949Z,6.20
2019-04-14T01:44:36.010Z,6.20
2019-04-14T01:47:05.392Z,6.20
2019-04-14T01:49:35.445Z,6.20
2019-04-14T01:52:23.919Z,6.20
2019-04-14T01:55:17.670Z,6.20
2019-04-14T01:58:05.371Z,6.20
2019-04-14T02:00:51.271Z,6.20
2019-04-14T02:03:21.707Z,6.10
2019-04-14T02:05:51.715Z,6.10
2019-04-14T02:08:22.010Z,6.10
2019-04-14T02:10:52.061Z,6.00
2019-04-14T02:13:22.545Z,6.00
2019-04-14T02:15:52.875Z,6.00
2019-04-14T02:18:22.936Z,6.00
2019-04-14T02:20:53.473Z,5.90
2019-04-14T02:23:23.643Z,5.90
2019-04-14T02:25:53.619Z,5.90
2019-04-14T02:28:24.231Z,5.80
2019-04-14T02:31:06.372Z,5.80
2019-04-14T02:38:55.297Z,5.80
2019-04-14T02:41:31.574Z,5.70
2019-04-14T02:43:57.955Z,5.70
2019-04-14T02:46:32.184Z,5.70
2019-04-14T02:48:55.481Z,5.70
2019-04-14T02:51:29.530Z,5.70
2019-04-14T02:54:06.803Z,5.60
2019-04-14T02:56:45.358Z,5.60
2019-04-14T02:59:00.128Z,5.60
2019-04-14T03:01:31.633Z,5.60
2019-04-14T03:03:55.971Z,5.60
2019-04-14T03:06:35.439Z,5.60
2019-04-14T03:11:43.866Z,5.60
2019-04-14T03:14:06.262Z,5.60
2019-04-14T03:19:59.378Z,5.50
2019-04-14T03:25:06.274Z,5.50
2019-04-14T03:27:54.747Z,5.50
2019-04-14T03:36:05.395Z,5.50
2019-04-14T03:37:59.417Z,5.50
2019-04-14T03:40:37.667Z,5.50
2019-04-14T03:43:09.977Z,5.50
2019-04-14T03:45:55.169Z,5.40
2019-04-14T03:48:34.521Z,5.40
2019-04-14T03:50:37.569Z,5.40
2019-04-14T03:55:40.095Z,5.40
2019-04-14T03:58:03.719Z,5.40
2019-04-14T04:00:33.566Z,5.40
2019-04-14T04:03:04.097Z,5.40
2019-04-14T04:05:34.318Z,5.30
2019-04-14T04:08:04.991Z,5.20
2019-04-14T04:10:36.204Z,5.20
2019-04-14T04:13:06.272Z,5.20
2019-04-14T04:15:36.468Z,5.20
2019-04-14T04:18:22.006Z,5.20
2019-04-14T04:21:20.563Z,5.20
2019-04-14T04:23:57.546Z,5.20
2019-04-14T04:26:54.706Z,5.20
2019-04-14T04:29:37.646Z,5.20
2019-04-14T04:32:21.382Z,5.20
2019-04-14T04:35:13.136Z,5.20
2019-04-14T04:37:52.053Z,5.20
2019-04-14T04:40:24.694Z,5.20
2019-04-14T04:42:54.840Z,5.20
2019-04-14T04:45:24.143Z,5.20
2019-04-14T04:47:53.540Z,5.10
2019-04-14T04:50:23.911Z,5.10
2019-04-14T04:52:54.020Z,5.10
2019-04-14T04:55:24.165Z,5.10
2019-04-14T04:57:54.534Z,5.00
2019-04-14T05:00:24.437Z,5.10
2019-04-14T05:02:54.738Z,5.10
2019-04-14T05:06:00.369Z,5.10
2019-04-14T05:08:30.469Z,5.10
2019-04-14T05:11:18.827Z,5.10
2019-04-14T05:13:49.026Z,5.10
2019-04-14T05:16:19.218Z,5.10
2019-04-14T05:18:48.710Z,5.20
2019-04-14T05:21:19.118Z,5.30
2019-04-14T05:23:49.546Z,5.30
2019-04-14T05:26:19.797Z,5.30
2019-04-14T05:28:50.532Z,5.30
2019-04-14T05:31:20.740Z,5.30
2019-04-14T05:33:50.941Z,5.40
2019-04-14T05:36:21.458Z,5.40
2019-04-14T05:38:51.789Z,5.40
2019-04-14T05:41:22.194Z,5.50
2019-04-14T05:43:55.654Z,5.50
2019-04-14T05:46:23.129Z,5.50
2019-04-14T05:48:53.612Z,5.50
2019-04-14T05:51:24.518Z,5.60
2019-04-14T05:53:54.495Z,5.60
2019-04-14T05:56:25.170Z,5.70
2019-04-14T05:58:55.685Z,5.90
2019-04-14T06:01:25.085Z,5.90
2019-04-14T06:03:54.405Z,5.90
2019-04-14T06:06:23.716Z,6.00
2019-04-14T06:08:53.083Z,6.20
2019-04-14T06:11:22.424Z,6.20
2019-04-14T06:13:51.741Z,6.30
2019-04-14T06:16:21.032Z,6.40
2019-04-14T06:18:50.339Z,6.40
2019-04-14T06:21:19.660Z,6.50
2019-04-14T06:23:48.937Z,6.50
2019-04-14T06:26:18.247Z,6.70
2019-04-14T06:28:47.548Z,6.70
2019-04-14T06:31:36.184Z,6.70
2019-04-14T06:34:30.245Z,6.70
2019-04-14T06:37:18.537Z,6.80
2019-04-14T06:39:49.795Z,7.00
2019-04-14T06:42:19.048Z,7.10
2019-04-14T06:44:48.403Z,7.20
2019-04-14T06:47:18.112Z,7.20
2019-04-14T06:49:49.260Z,7.30
2019-04-14T06:52:18.432Z,7.40
2019-04-14T06:54:47.763Z,7.50
2019-04-14T06:57:17.072Z,7.60
2019-04-14T06:59:46.299Z,7.80
2019-04-14T07:02:15.543Z,7.90
2019-04-14T07:04:44.882Z,7.90
2019-04-14T07:07:14.146Z,7.90
2019-04-14T07:09:43.842Z,8.00
2019-04-14T07:12:13.133Z,8.10
2019-04-14T07:14:42.501Z,8.10
2019-04-14T07:17:11.766Z,8.10
2019-04-14T07:19:40.992Z,8.20
2019-04-14T07:22:11.076Z,8.30
2019-04-14T07:24:40.424Z,8.40
2019-04-14T07:27:09.897Z,8.60
2019-04-14T07:29:54.514Z,8.70
2019-04-14T07:32:45.663Z,8.80
2019-04-14T07:35:35.297Z,8.70
2019-04-14T07:38:26.352Z,8.80
2019-04-14T07:41:11.747Z,8.80
2019-04-14T07:43:55.394Z,8.90
2019-04-14T07:46:42.285Z,9.00
2019-04-14T07:49:23.433Z,9.20
2019-04-14T07:52:14.536Z,9.20
2019-04-14T07:54:58.392Z,9.30
2019-04-14T07:57:44.948Z,9.50
2019-04-14T08:00:26.057Z,9.60
2019-04-14T08:03:02.528Z,9.60
2019-04-14T08:05:35.056Z,9.70
2019-04-14T08:08:04.607Z,9.70
2019-04-14T08:10:33.926Z,9.80
2019-04-14T08:13:03.313Z,10.00
2019-04-14T08:15:32.609Z,10.20
2019-04-14T08:18:01.945Z,10.30
2019-04-14T08:20:31.291Z,10.40
2019-04-14T08:23:00.917Z,10.60
2019-04-14T08:25:30.249Z,10.70
2019-04-14T08:27:59.515Z,10.70
2019-04-14T08:30:28.855Z,10.70
2019-04-14T08:32:58.111Z,10.80
2019-04-14T08:35:28.287Z,10.90
2019-04-14T08:37:57.664Z,11.00
2019-04-14T08:40:26.957Z,11.20
2019-04-14T08:43:14.836Z,11.10
2019-04-14T08:45:51.477Z,11.20
2019-04-14T08:48:38.394Z,11.40
2019-04-14T08:51:21.764Z,11.50
2019-04-14T08:54:00.379Z,11.50
2019-04-14T08:56:47.234Z,11.50
2019-04-14T08:59:24.711Z,11.40
2019-04-14T09:02:12.271Z,11.40
2019-04-14T09:04:51.131Z,11.50
2019-04-14T09:07:30.430Z,11.50
2019-04-14T09:10:13.804Z,11.70
2019-04-14T09:12:48.696Z,11.80
2019-04-14T09:15:18.049Z,11.80
2019-04-14T09:17:47.390Z,11.90
2019-04-14T09:20:16.995Z,12.00
2019-04-14T09:22:46.342Z,11.90
2019-04-14T09:25:15.924Z,11.90
2019-04-14T09:27:45.269Z,12.00
2019-04-14T09:30:15.459Z,12.10
2019-04-14T09:32:44.810Z,12.20
2019-04-14T09:35:14.175Z,12.00
2019-04-14T09:37:45.235Z,12.10
2019-04-14T09:40:14.631Z,12.30
2019-04-14T09:42:44.020Z,12.30
2019-04-14T09:45:13.679Z,12.20
2019-04-14T09:47:43.402Z,12.00
2019-04-14T09:50:13.679Z,12.20
2019-04-14T09:52:42.999Z,12.30
2019-04-14T09:55:12.375Z,12.40
2019-04-14T09:57:41.963Z,12.40
2019-04-14T10:00:13.286Z,12.30
2019-04-14T10:02:42.649Z,12.40
2019-04-14T10:05:12.133Z,12.50
2019-04-14T10:07:41.619Z,12.50
2019-04-14T10:10:11.113Z,12.30
2019-04-14T10:12:40.458Z,12.40
2019-04-14T10:15:10.843Z,12.50
2019-04-14T10:17:40.170Z,12.40
2019-04-14T10:20:09.722Z,12.30
2019-04-14T10:22:39.083Z,12.50
2019-04-14T10:25:08.391Z,12.50
2019-04-14T10:27:37.913Z,12.50
2019-04-14T10:30:08.969Z,12.70
2019-04-14T10:32:38.144Z,12.60
2019-04-14T10:35:07.410Z,12.50
2019-04-14T10:37:36.677Z,12.50
2019-04-14T10:40:06.273Z,12.60
2019-04-14T10:42:36.361Z,12.70
2019-04-14T10:45:06.361Z,12.70
2019-04-14T10:47:35.696Z,12.80
2019-04-14T10:50:05.881Z,12.80
2019-04-14T10:52:35.292Z,12.90
2019-04-14T10:55:04.910Z,13.00
2019-04-14T10:57:34.257Z,13.10
2019-04-14T11:00:05.910Z,13.30
2019-04-14T11:02:35.248Z,13.40
2019-04-14T11:05:04.734Z,13.30
2019-04-14T11:07:34.059Z,13.20
2019-04-14T11:10:03.405Z,12.90
2019-04-14T11:12:33.108Z,12.70
2019-04-14T11:15:02.428Z,12.80
2019-04-14T11:17:31.693Z,12.80
2019-04-14T11:20:00.999Z,13.00
2019-04-14T11:22:30.647Z,13.00
2019-04-14T11:25:00.404Z,13.10
2019-04-14T11:27:29.751Z,13.20
2019-04-14T11:29:59.123Z,13.30
2019-04-14T11:32:50.748Z,13.40
2019-04-14T11:35:39.435Z,13.40
2019-04-14T11:38:15.563Z,13.30
2019-04-14T11:40:47.909Z,13.20
2019-04-14T11:43:17.369Z,13.30
2019-04-14T11:45:46.603Z,13.30
2019-04-14T11:48:16.006Z,13.30
2019-04-14T11:50:45.722Z,13.40
2019-04-14T11:53:15.066Z,13.60
2019-04-14T11:55:44.452Z,13.70
2019-04-14T11:58:13.772Z,13.70
2019-04-14T12:01:05.245Z,13.70
2019-04-14T12:03:41.066Z,13.80
2019-04-14T12:06:47.405Z,13.80
2019-04-14T12:09:35.656Z,14.00
2019-04-14T12:12:06.832Z,14.00
2019-04-14T12:14:36.230Z,14.20
2019-04-14T12:17:05.574Z,14.20
2019-04-14T12:19:34.910Z,14.20
2019-04-14T12:22:08.405Z,14.30
2019-04-14T12:24:35.268Z,14.20
2019-04-14T12:27:04.584Z,14.10
2019-04-14T12:29:34.818Z,14.10
2019-04-14T12:32:06.292Z,14.10
2019-04-14T12:34:35.875Z,14.30
2019-04-14T12:37:05.228Z,14.40
2019-04-14T12:39:34.563Z,14.50
2019-04-14T12:42:07.329Z,14.20
2019-04-14T12:44:55.435Z,14.30
2019-04-14T12:47:43.727Z,14.40
2019-04-14T12:50:35.521Z,14.00
2019-04-14T12:53:05.163Z,13.70
2019-04-14T12:55:34.843Z,13.60
2019-04-14T12:58:05.282Z,13.50
2019-04-14T13:00:52.404Z,13.60
2019-04-14T13:03:22.571Z,13.90
2019-04-14T13:05:51.988Z,14.00
2019-04-14T13:08:21.336Z,14.20
2019-04-14T13:10:51.346Z,14.40
2019-04-14T13:13:20.626Z,14.40
2019-04-14T13:15:49.956Z,14.40
2019-04-14T13:18:19.279Z,14.50
2019-04-14T13:20:48.659Z,15.60
2019-04-14T13:23:17.975Z,16.70
2019-04-14T13:25:51.141Z,17.60
2019-04-14T13:28:20.558Z,18.40
2019-04-14T13:30:50.902Z,18.70
2019-04-14T13:33:20.239Z,18.70
2019-04-14T13:35:49.538Z,18.50
2019-04-14T13:38:18.881Z,18.70
2019-04-14T13:40:48.115Z,18.60
2019-04-14T13:43:17.881Z,18.30
2019-04-14T13:45:47.276Z,18.50
2019-04-14T13:48:16.519Z,18.10
2019-04-14T13:50:45.881Z,18.00
2019-04-14T13:53:15.220Z,18.00
2019-04-14T13:55:45.139Z,17.70
2019-04-14T13:58:14.478Z,17.50
2019-04-14T14:00:43.798Z,17.40
2019-04-14T14:03:13.083Z,17.50
2019-04-14T14:05:43.740Z,17.70
2019-04-14T14:08:13.171Z,17.50
2019-04-14T14:10:42.507Z,17.10
2019-04-14T14:13:33.790Z,17.00
2019-04-14T14:16:40.129Z,17.00
2019-04-14T14:19:29.007Z,17.10
2019-04-14T14:22:08.700Z,16.90
2019-04-14T14:24:56.991Z,16.60
2019-04-14T14:27:26.273Z,16.40
2019-04-14T14:29:55.510Z,16.20
2019-04-14T14:32:31.443Z,16.00
2019-04-14T14:35:00.839Z,15.90
2019-04-14T14:37:30.229Z,15.70
2019-04-14T14:39:59.533Z,15.60
2019-04-14T14:42:28.854Z,15.60
2019-04-14T14:45:17.127Z,15.40
2019-04-14T14:47:54.712Z,15.40
2019-04-14T14:50:30.613Z,15.30
2019-04-14T14:53:11.518Z,15.10
2019-04-14T14:55:31.670Z,14.80
2019-04-14T14:58:01.046Z,14.80
2019-04-14T15:00:34.471Z,14.80
2019-04-14T15:03:04.695Z,14.70
2019-04-14T15:05:33.967Z,14.70
2019-04-14T15:08:03.603Z,14.80
2019-04-14T15:10:32.913Z,14.90
2019-04-14T15:13:02.138Z,15.10
2019-04-14T15:15:31.707Z,15.00
2019-04-14T15:18:01.045Z,14.60
2019-04-14T15:20:30.372Z,14.50
2019-04-14T15:23:00.075Z,14.60
2019-04-14T15:25:29.530Z,14.70
2019-04-14T15:27:58.880Z,14.70
2019-04-14T15:30:28.207Z,14.60
2019-04-14T15:32:57.657Z,14.50
2019-04-14T15:35:26.983Z,14.60
2019-04-14T15:37:56.248Z,14.70
2019-04-14T15:40:25.596Z,14.60
2019-04-14T15:42:54.923Z,14.50
2019-04-14T15:45:24.267Z,14.50
2019-04-14T15:47:53.650Z,14.30
2019-04-14T15:50:22.962Z,14.10
2019-04-14T15:52:52.231Z,14.00
2019-04-14T15:55:21.607Z,14.00
2019-04-14T15:58:09.853Z,13.80
2019-04-14T16:00:48.489Z,13.80
2019-04-14T16:03:32.034Z,13.60
2019-04-14T16:06:29.612Z,13.50
2019-04-14T16:09:11.226Z,13.30
2019-04-14T16:11:49.926Z,13.00
2019-04-14T16:14:37.101Z,12.90
2019-04-14T16:17:43.486Z,12.90
2019-04-14T16:20:16.259Z,12.80
2019-04-14T16:22:45.611Z,12.80
2019-04-14T16:25:15.017Z,12.70
2019-04-14T16:28:08.693Z,12.60
2019-04-14T16:30:51.076Z,12.50
2019-04-14T16:33:34.054Z,12.40
2019-04-14T16:36:04.576Z,12.20
2019-04-14T16:38:34.005Z,12.10
2019-04-14T16:41:03.605Z,11.90
2019-04-14T16:43:32.947Z,11.90
2019-04-14T16:46:02.298Z,11.80
2019-04-14T16:48:32.133Z,11.80
2019-04-14T16:51:01.445Z,11.70
2019-04-14T16:53:33.759Z,11.60
2019-04-14T16:56:37.474Z,11.50
2019-04-14T16:59:10.711Z,11.50
2019-04-14T17:01:42.388Z,11.30
2019-04-14T17:04:11.680Z,11.20
2019-04-14T17:06:41.007Z,11.10
2019-04-14T17:09:10.263Z,11.00
2019-04-14T17:11:40.562Z,11.00
2019-04-14T17:14:38.111Z,10.90
2019-04-14T17:17:32.475Z,10.80
2019-04-14T17:20:07.213Z,10.70
2019-04-14T17:22:58.759Z,10.60
2019-04-14T17:25:45.824Z,10.60
2019-04-14T17:28:27.265Z,10.50
2019-04-14T17:31:01.694Z,10.40
2019-04-14T17:33:49.928Z,10.40
2019-04-14T17:36:28.209Z,10.30
2019-04-14T17:39:19.450Z,10.20
2019-04-14T17:42:07.759Z,10.10
2019-04-14T17:44:44.761Z,10.00
2019-04-14T17:47:30.309Z,9.90
2019-04-14T17:50:18.595Z,9.80
2019-04-14T17:53:14.657Z,9.80
2019-04-14T17:56:03.602Z,9.70
2019-04-14T17:58:51.930Z,9.50
2019-04-14T18:01:38.102Z,9.40
2019-04-14T18:04:15.513Z,9.30
2019-04-14T18:07:01.163Z,9.30
2019-04-14T18:09:55.700Z,9.20
2019-04-14T18:12:47.772Z,9.20
2019-04-14T18:15:41.899Z,9.10
2019-04-14T18:18:29.038Z,9.10
2019-04-14T18:21:01.398Z,8.90
2019-04-14T18:23:30.720Z,8.80
2019-04-14T18:26:00.065Z,8.70
2019-04-14T18:28:39.373Z,8.60
2019-04-14T18:31:28.468Z,8.50
2019-04-14T18:34:12.375Z,8.40
2019-04-14T18:36:48.873Z,8.40
2019-04-14T18:39:49.607Z,8.40
2019-04-14T18:42:22.516Z,8.30
2019-04-14T18:45:04.048Z,8.30
2019-04-14T18:47:55.144Z,8.10
2019-04-14T18:50:51.837Z,7.90
2019-04-14T18:53:24.390Z,7.80
2019-04-14T18:56:07.288Z,7.80
2019-04-14T18:58:55.596Z,7.80
2019-04-14T19:01:27.886Z,7.80
2019-04-14T19:03:57.210Z,7.80
2019-04-14T19:06:26.571Z,7.80
2019-04-14T19:08:55.912Z,7.70
2019-04-14T19:11:41.366Z,7.60
2019-04-14T19:14:12.112Z,7.50
2019-04-14T19:16:44.648Z,7.50
2019-04-14T19:19:14.033Z,7.50
2019-04-14T19:21:43.371Z,7.50
2019-04-14T19:24:12.712Z,7.50
2019-04-14T19:26:42.069Z,7.50
2019-04-14T19:29:11.305Z,7.40
2019-04-14T19:31:40.650Z,7.40
2019-04-14T19:34:09.984Z,7.40
2019-04-14T19:36:39.304Z,7.40
2019-04-14T19:39:10.986Z,7.30
2019-04-14T19:41:40.338Z,7.20
2019-04-14T19:44:09.605Z,7.20
2019-04-14T19:46:38.850Z,7.10
2019-04-14T19:49:08.732Z,7.10
2019-04-14T19:51:38.056Z,7.00
2019-04-14T19:54:07.659Z,7.00
2019-04-14T19:56:37.291Z,6.90
2019-04-14T19:59:06.602Z,6.90
2019-04-14T20:01:36.368Z,6.80
2019-04-14T20:04:05.659Z,6.70
2019-04-14T20:06:35.264Z,6.70
2019-04-14T20:09:07.083Z,6.70
2019-04-14T20:11:36.524Z,6.60
2019-04-14T20:14:05.861Z,6.60
2019-04-14T20:16:54.482Z,6.50
2019-04-14T20:19:41.506Z,6.40
2019-04-14T20:22:42.911Z,6.30
2019-04-14T20:25:33.817Z,6.30
2019-04-14T20:28:16.915Z,6.20
2019-04-14T20:30:49.799Z,6.10
2019-04-14T20:33:19.201Z,6.00
2019-04-14T20:35:48.478Z,5.90
2019-04-14T20:38:18.582Z,5.70
2019-04-14T20:40:47.902Z,5.50
2019-04-14T20:43:17.250Z,5.20
2019-04-14T20:45:46.573Z,5.10
2019-04-14T20:48:15.836Z,5.00
2019-04-14T20:50:45.067Z,5.00
2019-04-14T20:53:14.788Z,4.70
2019-04-14T20:55:47.664Z,4.60
2019-04-14T20:58:17.080Z,4.50
2019-04-14T21:00:46.382Z,4.40
2019-04-14T21:03:23.519Z,4.30
2019-04-14T21:06:17.871Z,4.30
2019-04-14T21:09:06.159Z,4.20
2019-04-14T21:11:51.789Z,4.00
2019-04-14T21:14:49.320Z,3.80
2019-04-14T21:17:32.301Z,3.80
2019-04-14T21:20:20.595Z,3.90
2019-04-14T21:23:12.353Z,3.90
2019-04-14T21:26:09.969Z,3.90
2019-04-14T21:28:54.667Z,3.90
2019-04-14T21:31:44.008Z,3.80
2019-04-14T21:34:29.432Z,3.70
2019-04-14T21:37:24.035Z,3.70
2019-04-14T21:40:30.908Z,3.50
2019-04-14T21:43:00.240Z,3.60
2019-04-14T21:45:30.108Z,3.70
2019-04-14T21:47:59.356Z,3.50
2019-04-14T21:50:28.716Z,3.20
2019-04-14T21:52:58.038Z,3.10
2019-04-14T21:55:27.395Z,3.10
2019-04-14T21:58:18.699Z,2.90
2019-04-14T22:01:48.068Z,2.80
2019-04-14T22:04:48.668Z,2.70
2019-04-14T22:07:33.553Z,2.60
2019-04-14T22:10:12.287Z,2.60
2019-04-14T22:12:41.625Z,2.60
2019-04-14T22:15:13.805Z,2.50
2019-04-14T22:17:43.000Z,2.40
2019-04-14T22:20:12.298Z,2.30
2019-04-14T22:22:41.655Z,2.40
2019-04-14T22:25:11.181Z,2.40
2019-04-14T22:27:40.792Z,2.30
2019-04-14T22:30:10.606Z,2.20
2019-04-14T22:32:39.914Z,2.10
2019-04-14T22:35:09.621Z,2.00
2019-04-14T22:37:38.922Z,1.90
2019-04-14T22:40:08.826Z,1.90
2019-04-14T22:42:38.059Z,1.80
2019-04-14T22:45:07.560Z,1.80
2019-04-14T22:47:36.887Z,1.80
2019-04-14T22:50:06.825Z,1.80
2019-04-14T22:52:36.154Z,1.80
2019-04-14T22:55:06.179Z,1.70
2019-04-14T22:57:35.496Z,1.60
2019-04-14T23:00:06.838Z,1.50
2019-04-14T23:02:48.975Z,1.50
2019-04-14T23:05:30.183Z,1.40
2019-04-14T23:08:09.115Z,1.40
2019-04-14T23:11:03.833Z,1.40
2019-04-14T23:13:51.305Z,1.40
2019-04-14T23:16:38.415Z,1.40
2019-04-14T23:19:12.189Z,1.30
2019-04-14T23:22:03.415Z,1.20
2019-04-14T23:24:36.294Z,1.20
2019-04-14T23:27:05.547Z,1.10
2019-04-14T23:29:34.771Z,1.10
2019-04-14T23:32:04.504Z,1.10
2019-04-14T23:34:33.726Z,1.00
2019-04-14T23:37:03.094Z,0.90
2019-04-14T23:39:32.342Z,0.80
2019-04-14T23:42:01.611Z,0.90
2019-04-14T23:44:30.848Z,0.80
2019-04-14T23:47:00.089Z,0.80
2019-04-14T23:49:29.400Z,0.80
2019-04-14T23:51:59.632Z,0.60
2019-04-14T23:54:28.946Z,0.60
2019-04-14T23:57:05.521Z,0.60
2019-04-14T23:59:29.263Z,0.70
